createdAt,value
2019-03-29T00:00:48.597Z,8.70
2019-03-29T00:03:18.219Z,8.67
2019-03-29T00:05:48.091Z,8.67
2019-03-29T00:08:17.830Z,8.65
2019-03-29T00:10:47.320Z,8.64
2019-03-29T00:13:17.101Z,8.63
2019-03-29T00:15:46.544Z,8.57
2019-03-29T00:18:16.035Z,8.59
2019-03-29T00:20:45.478Z,8.61
2019-03-29T00:23:15.094Z,8.62
2019-03-29T00:25:44.864Z,8.56
2019-03-29T00:28:14.321Z,8.57
2019-03-29T00:30:44.179Z,8.59
2019-03-29T00:33:13.648Z,8.58
2019-03-29T00:35:43.374Z,8.62
2019-03-29T00:38:12.902Z,8.61
2019-03-29T00:40:42.809Z,8.62
2019-03-29T00:43:12.273Z,8.59
2019-03-29T00:45:42.315Z,8.59
2019-03-29T00:48:11.787Z,8.56
2019-03-29T00:50:41.304Z,8.54
2019-03-29T00:53:10.811Z,8.51
2019-03-29T00:55:40.518Z,8.51
2019-03-29T00:58:10.012Z,8.52
2019-03-29T01:00:39.579Z,8.50
2019-03-29T01:03:09.109Z,8.47
2019-03-29T01:05:39.421Z,8.46
2019-03-29T01:08:10.441Z,8.47
2019-03-29T01:10:40.559Z,8.46
2019-03-29T01:13:10.055Z,8.41
2019-03-29T01:15:39.537Z,8.39
2019-03-29T01:18:09.001Z,8.42
2019-03-29T01:20:38.482Z,8.42
2019-03-29T01:23:08.267Z,8.41
2019-03-29T01:25:37.724Z,8.43
2019-03-29T01:28:07.201Z,8.43
2019-03-29T01:30:36.680Z,8.43
2019-03-29T01:33:06.142Z,8.44
2019-03-29T01:35:36.117Z,8.44
2019-03-29T01:38:05.941Z,8.48
2019-03-29T01:40:35.578Z,8.51
2019-03-29T01:43:05.065Z,8.50
2019-03-29T01:45:34.531Z,8.48
2019-03-29T01:48:04.071Z,8.50
2019-03-29T01:50:34.985Z,8.48
2019-03-29T01:53:04.580Z,8.43
2019-03-29T01:55:34.322Z,8.43
2019-03-29T01:58:03.797Z,8.42
2019-03-29T02:00:38.105Z,8.40
2019-03-29T02:03:07.569Z,8.39
2019-03-29T02:05:37.610Z,8.36
2019-03-29T02:08:07.130Z,8.36
2019-03-29T02:10:36.764Z,8.34
2019-03-29T02:13:06.814Z,8.36
2019-03-29T02:15:37.777Z,8.33
2019-03-29T02:18:07.945Z,8.31
2019-03-29T02:20:37.598Z,8.28
2019-03-29T02:23:07.225Z,8.28
2019-03-29T02:25:36.860Z,8.28
2019-03-29T02:28:06.591Z,8.24
2019-03-29T02:30:36.413Z,8.22
2019-03-29T02:33:06.318Z,8.19
2019-03-29T02:35:36.208Z,8.17
2019-03-29T02:38:05.961Z,8.15
2019-03-29T02:40:35.874Z,8.13
2019-03-29T02:43:05.716Z,8.13
2019-03-29T02:45:35.657Z,8.11
2019-03-29T02:48:05.629Z,8.12
2019-03-29T02:50:36.655Z,8.08
2019-03-29T02:53:06.648Z,8.10
2019-03-29T02:55:36.296Z,8.06
2019-03-29T02:58:05.824Z,8.01
2019-03-29T03:00:36.033Z,7.98
2019-03-29T03:03:05.967Z,7.93
2019-03-29T03:05:35.627Z,7.87
2019-03-29T03:08:05.377Z,7.81
2019-03-29T03:10:35.411Z,7.76
2019-03-29T03:13:05.036Z,7.69
2019-03-29T03:15:34.590Z,7.65
2019-03-29T03:18:04.100Z,7.60
2019-03-29T03:20:33.568Z,7.56
2019-03-29T03:23:03.422Z,7.56
2019-03-29T03:25:32.879Z,7.54
2019-03-29T03:28:02.746Z,7.54
2019-03-29T03:30:32.273Z,7.58
2019-03-29T03:33:01.996Z,7.63
2019-03-29T03:35:31.482Z,7.62
2019-03-29T03:38:01.012Z,7.63
2019-03-29T03:40:30.514Z,7.69
2019-03-29T03:42:59.949Z,7.70
2019-03-29T03:45:29.454Z,7.70
2019-03-29T03:47:58.918Z,7.73
2019-03-29T03:50:40.233Z,7.78
2019-03-29T03:53:11.173Z,7.79
2019-03-29T03:55:41.677Z,7.81
2019-03-29T03:58:11.770Z,7.83
2019-03-29T04:00:50.821Z,7.80
2019-03-29T04:03:20.812Z,7.82
2019-03-29T04:05:50.862Z,7.83
2019-03-29T04:08:20.497Z,7.85
2019-03-29T04:10:49.967Z,7.87
2019-03-29T04:13:19.528Z,7.90
2019-03-29T04:15:49.068Z,7.89
2019-03-29T04:18:18.561Z,7.89
2019-03-29T04:20:48.150Z,7.93
2019-03-29T04:23:17.607Z,7.93
2019-03-29T04:25:47.394Z,7.98
2019-03-29T04:28:16.880Z,7.99
2019-03-29T04:30:46.409Z,7.98
2019-03-29T04:33:16.327Z,7.92
2019-03-29T04:35:46.562Z,7.87
2019-03-29T04:38:16.012Z,7.87
2019-03-29T04:40:45.506Z,7.93
2019-03-29T04:43:15.267Z,7.96
2019-03-29T04:45:44.775Z,8.01
2019-03-29T04:48:14.406Z,8.02
2019-03-29T04:50:43.862Z,7.95
2019-03-29T04:53:13.327Z,7.92
2019-03-29T04:55:42.800Z,7.93
2019-03-29T04:58:12.316Z,7.95
2019-03-29T05:00:42.140Z,7.98
2019-03-29T05:03:11.618Z,8.02
2019-03-29T05:05:41.068Z,8.05
2019-03-29T05:08:10.545Z,8.07
2019-03-29T05:10:40.343Z,8.09
2019-03-29T05:13:09.819Z,8.05
2019-03-29T05:15:39.338Z,8.03
2019-03-29T05:18:09.001Z,8.09
2019-03-29T05:20:38.876Z,8.18
2019-03-29T05:23:08.901Z,8.25
2019-03-29T05:25:38.373Z,8.17
2019-03-29T05:28:07.833Z,8.20
2019-03-29T05:30:37.339Z,8.33
2019-03-29T05:33:06.815Z,8.42
2019-03-29T05:35:36.391Z,8.46
2019-03-29T05:38:06.031Z,8.54
2019-03-29T05:40:35.570Z,8.53
2019-03-29T05:43:05.466Z,8.66
2019-03-29T05:45:35.016Z,8.76
2019-03-29T05:48:04.480Z,8.84
2019-03-29T05:50:36.718Z,8.86
2019-03-29T05:53:05.402Z,8.91
2019-03-29T05:55:34.877Z,8.97
2019-03-29T05:58:04.572Z,9.02
2019-03-29T06:00:34.134Z,9.11
2019-03-29T06:03:03.584Z,9.19
2019-03-29T06:05:33.055Z,9.22
2019-03-29T06:08:02.531Z,9.23
2019-03-29T06:10:32.003Z,9.24
2019-03-29T06:13:01.460Z,9.24
2019-03-29T06:15:30.912Z,9.26
2019-03-29T06:18:00.376Z,9.21
2019-03-29T06:20:30.189Z,9.17
2019-03-29T06:22:59.667Z,9.15
2019-03-29T06:25:29.140Z,9.16
2019-03-29T06:27:58.755Z,9.25
2019-03-29T06:30:29.531Z,9.44
2019-03-29T06:32:59.081Z,9.48
2019-03-29T06:35:31.476Z,9.59
2019-03-29T06:38:01.699Z,9.65
2019-03-29T06:40:31.829Z,9.78
2019-03-29T06:43:01.311Z,9.94
2019-03-29T06:45:30.767Z,10.20
2019-03-29T06:48:00.250Z,10.39
2019-03-29T06:50:29.714Z,10.53
2019-03-29T06:52:59.186Z,10.54
2019-03-29T06:55:28.669Z,10.55
2019-03-29T06:57:58.152Z,10.57
2019-03-29T07:00:27.603Z,10.64
2019-03-29T07:02:57.428Z,10.65
2019-03-29T07:05:26.928Z,10.65
2019-03-29T07:07:56.470Z,10.81
2019-03-29T07:10:25.968Z,10.95
2019-03-29T07:12:56.563Z,11.16
2019-03-29T07:15:26.171Z,11.22
2019-03-29T07:17:55.640Z,11.07
2019-03-29T07:20:25.135Z,11.27
2019-03-29T07:22:54.626Z,11.52
2019-03-29T07:25:24.092Z,12.07
2019-03-29T07:27:53.672Z,13.05
2019-03-29T07:30:23.193Z,14.32
2019-03-29T07:32:52.929Z,14.99
2019-03-29T07:35:22.398Z,14.63
2019-03-29T07:37:51.883Z,15.16
2019-03-29T07:40:21.391Z,15.43
2019-03-29T07:42:50.859Z,15.57
2019-03-29T07:45:20.347Z,15.65
2019-03-29T07:47:50.155Z,15.16
2019-03-29T07:50:19.716Z,14.77
2019-03-29T07:52:49.198Z,14.44
2019-03-29T07:55:18.698Z,14.25
2019-03-29T07:57:48.185Z,15.02
2019-03-29T08:00:20.314Z,15.02
2019-03-29T08:02:48.922Z,14.73
2019-03-29T08:05:18.416Z,15.68
2019-03-29T08:07:47.884Z,15.92
2019-03-29T08:10:25.910Z,15.59
2019-03-29T08:12:49.720Z,15.03
2019-03-29T08:15:19.534Z,15.88
2019-03-29T08:17:49.010Z,16.54
2019-03-29T08:20:39.219Z,16.79
2019-03-29T08:22:49.965Z,18.03
2019-03-29T08:25:19.458Z,16.85
2019-03-29T08:27:49.054Z,16.83
2019-03-29T08:30:18.562Z,17.90
2019-03-29T08:32:48.113Z,17.67
2019-03-29T08:35:17.865Z,17.74
2019-03-29T08:37:47.420Z,17.26
2019-03-29T08:40:16.883Z,16.24
2019-03-29T08:42:46.654Z,15.79
2019-03-29T08:45:16.189Z,15.54
2019-03-29T08:47:45.686Z,15.04
2019-03-29T08:50:15.204Z,15.13
2019-03-29T08:52:44.761Z,14.92
2019-03-29T08:55:17.282Z,14.72
2019-03-29T08:57:45.474Z,14.52
2019-03-29T09:00:18.118Z,14.65
2019-03-29T09:02:47.598Z,14.83
2019-03-29T09:05:17.068Z,14.26
2019-03-29T09:07:46.603Z,13.83
2019-03-29T09:10:27.345Z,13.83
2019-03-29T09:12:56.803Z,12.98
2019-03-29T09:15:26.271Z,13.19
2019-03-29T09:17:55.779Z,13.01
2019-03-29T09:20:25.230Z,13.21
2019-03-29T09:22:54.749Z,13.30
2019-03-29T09:25:24.217Z,12.62
2019-03-29T09:27:53.699Z,12.98
2019-03-29T09:30:23.207Z,12.98
2019-03-29T09:32:52.695Z,12.80
2019-03-29T09:35:22.452Z,13.42
2019-03-29T09:37:51.984Z,12.93
2019-03-29T09:40:21.564Z,12.54
2019-03-29T09:43:06.247Z,13.00
2019-03-29T09:45:22.281Z,13.22
2019-03-29T09:47:51.743Z,13.07
2019-03-29T09:50:22.949Z,13.66
2019-03-29T09:52:52.713Z,13.42
2019-03-29T09:55:22.207Z,13.46
2019-03-29T09:57:51.710Z,13.85
2019-03-29T10:00:23.594Z,14.36
2019-03-29T10:02:52.417Z,15.02
2019-03-29T10:05:21.891Z,15.02
2019-03-29T10:07:51.449Z,14.48
2019-03-29T10:10:20.908Z,14.50
2019-03-29T10:12:50.736Z,14.64
2019-03-29T10:15:20.203Z,14.71
2019-03-29T10:17:49.656Z,14.55
2019-03-29T10:20:19.116Z,14.58
2019-03-29T10:22:48.578Z,14.61
2019-03-29T10:25:20.032Z,14.85
2019-03-29T10:27:49.203Z,15.08
2019-03-29T10:30:38.302Z,13.82
2019-03-29T10:33:07.894Z,13.82
2019-03-29T10:35:50.909Z,14.76
2019-03-29T10:38:09.096Z,14.35
2019-03-29T10:40:38.861Z,13.47
2019-03-29T10:43:08.436Z,14.22
2019-03-29T10:45:40.289Z,14.68
2019-03-29T10:48:09.067Z,14.79
2019-03-29T10:50:38.540Z,15.06
2019-03-29T10:53:08.003Z,15.04
2019-03-29T10:55:37.457Z,16.10
2019-03-29T10:58:09.728Z,16.10
2019-03-29T11:00:40.360Z,16.34
2019-03-29T11:03:10.245Z,16.32
2019-03-29T11:05:39.789Z,15.98
2019-03-29T11:08:11.592Z,15.84
2019-03-29T11:10:40.809Z,15.40
2019-03-29T11:13:13.596Z,14.85
2019-03-29T11:15:41.861Z,15.07
2019-03-29T11:18:11.425Z,14.93
2019-03-29T11:20:40.890Z,14.01
2019-03-29T11:23:10.372Z,14.06
2019-03-29T11:25:39.919Z,14.06
2019-03-29T11:28:09.383Z,14.88
2019-03-29T11:30:42.350Z,15.42
2019-03-29T11:33:10.667Z,15.60
2019-03-29T11:35:40.120Z,15.34
2019-03-29T11:38:09.585Z,16.14
2019-03-29T11:40:39.059Z,15.38
2019-03-29T11:43:26.516Z,15.24
2019-03-29T11:45:48.422Z,15.18
2019-03-29T11:48:18.851Z,14.28
2019-03-29T11:50:48.323Z,14.94
2019-03-29T11:53:18.059Z,15.14
2019-03-29T11:55:47.909Z,15.08
2019-03-29T11:58:17.378Z,15.29
2019-03-29T12:00:47.125Z,15.36
2019-03-29T12:03:16.922Z,16.09
2019-03-29T12:05:46.398Z,16.60
2019-03-29T12:08:15.848Z,16.13
2019-03-29T12:10:45.395Z,16.62
2019-03-29T12:13:15.147Z,16.67
2019-03-29T12:15:44.788Z,18.05
2019-03-29T12:18:14.260Z,18.44
2019-03-29T12:20:43.781Z,20.12
2019-03-29T12:23:13.246Z,20.77
2019-03-29T12:25:42.752Z,22.00
2019-03-29T12:28:12.321Z,21.42
2019-03-29T12:30:41.791Z,21.17
2019-03-29T12:33:11.616Z,20.13
2019-03-29T12:35:41.167Z,19.36
2019-03-29T12:38:10.623Z,18.00
2019-03-29T12:40:40.087Z,18.71
2019-03-29T12:43:12.444Z,19.55
2019-03-29T12:45:40.703Z,21.50
2019-03-29T12:48:10.161Z,21.99
2019-03-29T12:50:40.042Z,21.98
2019-03-29T12:53:09.803Z,22.64
2019-03-29T12:55:39.371Z,20.93
2019-03-29T12:58:08.823Z,20.69
2019-03-29T13:00:38.379Z,20.78
2019-03-29T13:03:07.863Z,19.45
2019-03-29T13:05:37.340Z,20.39
2019-03-29T13:08:07.089Z,20.92
2019-03-29T13:10:36.519Z,21.22
2019-03-29T13:13:05.988Z,20.05
2019-03-29T13:15:36.210Z,20.60
2019-03-29T13:18:05.712Z,20.88
2019-03-29T13:20:35.502Z,19.23
2019-03-29T13:23:05.302Z,19.91
2019-03-29T13:25:35.145Z,20.68
2019-03-29T13:28:04.595Z,20.91
2019-03-29T13:30:37.059Z,21.16
2019-03-29T13:33:10.666Z,21.79
2019-03-29T13:35:40.112Z,21.36
2019-03-29T13:38:09.654Z,21.79
2019-03-29T13:40:39.107Z,22.31
2019-03-29T13:43:08.554Z,22.11
2019-03-29T13:45:38.061Z,21.37
2019-03-29T13:48:07.518Z,21.70
2019-03-29T13:50:36.981Z,20.34
2019-03-29T13:53:06.766Z,20.93
2019-03-29T13:55:36.236Z,20.79
2019-03-29T13:58:05.696Z,21.30
2019-03-29T14:00:35.172Z,21.58
2019-03-29T14:03:04.631Z,21.92
2019-03-29T14:05:34.100Z,22.28
2019-03-29T14:08:03.995Z,22.27
2019-03-29T14:10:33.520Z,20.32
2019-03-29T14:13:02.976Z,21.51
2019-03-29T14:15:32.438Z,21.54
2019-03-29T14:18:01.908Z,21.24
2019-03-29T14:20:32.912Z,20.53
2019-03-29T14:23:03.242Z,20.70
2019-03-29T14:25:33.007Z,20.63
2019-03-29T14:28:03.167Z,21.13
2019-03-29T14:30:32.993Z,21.69
2019-03-29T14:33:02.446Z,21.90
2019-03-29T14:35:32.255Z,20.47
2019-03-29T14:38:01.696Z,20.02
2019-03-29T14:40:31.270Z,21.32
2019-03-29T14:43:00.823Z,20.27
2019-03-29T14:45:30.303Z,20.91
2019-03-29T14:48:00.225Z,21.44
2019-03-29T14:50:29.699Z,20.83
2019-03-29T14:52:59.179Z,21.36
2019-03-29T14:55:28.734Z,21.40
2019-03-29T14:57:58.426Z,21.01
2019-03-29T15:00:44.383Z,21.29
2019-03-29T15:03:13.913Z,20.01
2019-03-29T15:05:43.391Z,20.79
2019-03-29T15:08:13.003Z,20.70
2019-03-29T15:10:45.616Z,19.89
2019-03-29T15:13:13.611Z,20.11
2019-03-29T15:15:43.188Z,20.35
2019-03-29T15:18:12.623Z,17.70
2019-03-29T15:20:52.658Z,18.62
2019-03-29T15:23:13.258Z,18.44
2019-03-29T15:25:43.061Z,18.54
2019-03-29T15:28:13.723Z,18.10
2019-03-29T15:30:43.603Z,18.64
2019-03-29T15:33:13.053Z,18.49
2019-03-29T15:35:43.355Z,18.62
2019-03-29T15:38:12.840Z,18.60
2019-03-29T15:40:42.401Z,18.83
2019-03-29T15:43:11.902Z,18.22
2019-03-29T15:45:41.369Z,18.28
2019-03-29T15:48:10.825Z,18.00
2019-03-29T15:50:40.300Z,17.97
2019-03-29T15:53:10.085Z,17.53
2019-03-29T15:55:39.567Z,17.54
2019-03-29T15:58:09.338Z,17.32
2019-03-29T16:00:38.842Z,17.14
2019-03-29T16:03:08.353Z,17.45
2019-03-29T16:05:37.980Z,17.36
2019-03-29T16:08:07.433Z,17.38
2019-03-29T16:10:36.971Z,17.33
2019-03-29T16:13:06.470Z,17.28
2019-03-29T16:15:38.337Z,17.10
2019-03-29T16:18:07.112Z,17.33
2019-03-29T16:20:36.574Z,17.14
2019-03-29T16:23:06.046Z,16.95
2019-03-29T16:25:35.519Z,17.13
2019-03-29T16:28:04.978Z,16.26
2019-03-29T16:30:34.547Z,16.36
2019-03-29T16:33:04.322Z,16.57
2019-03-29T16:35:33.795Z,15.97
2019-03-29T16:38:03.255Z,16.06
2019-03-29T16:40:32.798Z,15.83
2019-03-29T16:43:02.246Z,15.80
2019-03-29T16:45:31.703Z,15.56
2019-03-29T16:48:01.186Z,15.14
2019-03-29T16:50:30.648Z,15.14
2019-03-29T16:53:00.128Z,14.91
2019-03-29T16:55:29.595Z,14.77
2019-03-29T16:57:59.058Z,14.78
2019-03-29T17:00:28.533Z,14.72
2019-03-29T17:02:58.262Z,14.63
2019-03-29T17:05:27.703Z,14.48
2019-03-29T17:07:57.212Z,14.30
2019-03-29T17:10:26.675Z,14.13
2019-03-29T17:12:56.139Z,13.98
2019-03-29T17:15:25.627Z,13.81
2019-03-29T17:17:55.356Z,13.61
2019-03-29T17:20:24.810Z,13.44
2019-03-29T17:22:54.305Z,13.26
2019-03-29T17:25:23.778Z,13.09
2019-03-29T17:27:53.263Z,12.91
2019-03-29T17:30:34.470Z,12.70
2019-03-29T17:33:03.921Z,12.50
2019-03-29T17:35:33.394Z,12.29
2019-03-29T17:38:02.862Z,12.12
2019-03-29T17:40:32.330Z,11.92
2019-03-29T17:43:02.077Z,11.72
2019-03-29T17:45:31.527Z,11.53
2019-03-29T17:48:01.003Z,11.39
2019-03-29T17:50:30.841Z,11.21
2019-03-29T17:53:00.321Z,11.09
2019-03-29T17:55:31.789Z,10.94
2019-03-29T17:58:00.975Z,10.80
2019-03-29T18:00:31.402Z,10.67
2019-03-29T18:03:01.164Z,10.56
2019-03-29T18:05:30.633Z,10.48
2019-03-29T18:08:00.459Z,10.36
2019-03-29T18:10:29.909Z,10.27
2019-03-29T18:12:59.392Z,10.20
2019-03-29T18:15:28.862Z,10.13
2019-03-29T18:17:58.609Z,10.07
2019-03-29T18:20:28.077Z,9.99
2019-03-29T18:22:57.546Z,9.91
2019-03-29T18:25:27.291Z,9.84
2019-03-29T18:27:56.836Z,9.78
2019-03-29T18:30:35.189Z,9.70
2019-03-29T18:33:05.583Z,9.58
2019-03-29T18:35:35.311Z,9.46
2019-03-29T18:38:04.780Z,9.36
2019-03-29T18:40:34.230Z,9.26
2019-03-29T18:43:03.866Z,9.16
2019-03-29T18:45:33.343Z,9.08
2019-03-29T18:48:02.882Z,9.05
2019-03-29T18:50:32.349Z,8.97
2019-03-29T18:53:01.830Z,8.88
2019-03-29T18:55:31.284Z,8.77
2019-03-29T18:58:00.929Z,8.68
2019-03-29T19:00:51.384Z,8.59
2019-03-29T19:03:20.876Z,8.47
2019-03-29T19:05:50.331Z,8.40
2019-03-29T19:08:19.809Z,8.32
2019-03-29T19:10:49.263Z,8.25
2019-03-29T19:13:18.905Z,8.19
2019-03-29T19:15:48.377Z,8.16
2019-03-29T19:18:18.141Z,8.11
2019-03-29T19:20:47.611Z,8.07
2019-03-29T19:23:17.165Z,8.04
2019-03-29T19:25:47.199Z,8.01
2019-03-29T19:28:16.736Z,7.96
2019-03-29T19:30:46.314Z,7.90
2019-03-29T19:33:15.747Z,7.87
2019-03-29T19:35:45.242Z,7.87
2019-03-29T19:38:14.720Z,7.78
2019-03-29T19:40:44.185Z,7.71
2019-03-29T19:43:14.106Z,7.65
2019-03-29T19:45:43.853Z,7.66
2019-03-29T19:48:13.317Z,7.63
2019-03-29T19:50:42.807Z,7.63
2019-03-29T19:53:12.362Z,7.67
2019-03-29T19:55:41.867Z,7.67
2019-03-29T19:58:11.416Z,7.67
2019-03-29T20:00:41.862Z,7.67
2019-03-29T20:03:11.674Z,7.73
2019-03-29T20:05:41.420Z,7.73
2019-03-29T20:08:10.974Z,7.63
2019-03-29T20:10:40.710Z,7.56
2019-03-29T20:13:10.174Z,7.55
2019-03-29T20:15:39.641Z,7.55
2019-03-29T20:18:09.138Z,7.62
2019-03-29T20:20:38.607Z,7.59
2019-03-29T20:23:08.342Z,7.64
2019-03-29T20:25:37.802Z,7.77
2019-03-29T20:28:07.388Z,7.97
2019-03-29T20:30:37.218Z,7.84
2019-03-29T20:33:06.694Z,7.71
2019-03-29T20:35:36.160Z,7.69
2019-03-29T20:38:05.725Z,7.61
2019-03-29T20:40:35.361Z,7.44
2019-03-29T20:43:04.840Z,7.37
2019-03-29T20:45:34.303Z,7.28
2019-03-29T20:48:04.108Z,7.25
2019-03-29T20:50:33.584Z,7.21
2019-03-29T20:53:03.323Z,7.12
2019-03-29T20:55:32.777Z,7.05
2019-03-29T20:58:02.432Z,7.00
2019-03-29T21:00:32.199Z,6.94
2019-03-29T21:03:01.677Z,6.86
2019-03-29T21:05:31.154Z,6.81
2019-03-29T21:08:00.629Z,6.77
2019-03-29T21:10:30.086Z,6.74
2019-03-29T21:12:59.591Z,6.69
2019-03-29T21:15:29.295Z,6.64
2019-03-29T21:17:58.819Z,6.60
2019-03-29T21:20:28.546Z,6.57
2019-03-29T21:22:58.026Z,6.54
2019-03-29T21:25:27.767Z,6.53
2019-03-29T21:27:57.245Z,6.48
2019-03-29T21:30:26.724Z,6.42
2019-03-29T21:32:56.201Z,6.32
2019-03-29T21:35:25.686Z,6.24
2019-03-29T21:37:55.504Z,6.19
2019-03-29T21:40:24.959Z,6.17
2019-03-29T21:42:54.496Z,6.13
2019-03-29T21:45:28.900Z,6.07
2019-03-29T21:48:02.333Z,6.11
2019-03-29T21:50:26.280Z,6.10
2019-03-29T21:52:55.756Z,6.12
2019-03-29T21:55:25.533Z,6.13
2019-03-29T21:57:55.013Z,6.06
2019-03-29T22:00:24.480Z,6.03
2019-03-29T22:02:53.949Z,5.96
2019-03-29T22:05:23.429Z,5.94
2019-03-29T22:07:52.930Z,5.95
2019-03-29T22:10:22.416Z,5.91
2019-03-29T22:12:51.877Z,5.88
2019-03-29T22:15:21.350Z,5.82
2019-03-29T22:17:50.824Z,5.76
2019-03-29T22:20:20.302Z,5.70
2019-03-29T22:22:49.762Z,5.61
2019-03-29T22:25:19.229Z,5.56
2019-03-29T22:27:48.707Z,5.52
2019-03-29T22:30:18.272Z,5.47
2019-03-29T22:32:48.059Z,5.41
2019-03-29T22:35:17.540Z,5.36
2019-03-29T22:37:47.290Z,5.36
2019-03-29T22:40:16.843Z,5.35
2019-03-29T22:42:46.313Z,5.30
2019-03-29T22:45:15.782Z,5.31
2019-03-29T22:47:45.247Z,5.26
2019-03-29T22:50:14.977Z,5.26
2019-03-29T22:52:44.430Z,5.23
2019-03-29T22:55:13.937Z,5.20
2019-03-29T22:57:43.394Z,5.19
2019-03-29T23:00:22.062Z,5.19
2019-03-29T23:02:51.856Z,5.15
2019-03-29T23:05:21.497Z,5.15
2019-03-29T23:07:50.949Z,5.12
2019-03-29T23:10:20.750Z,5.12
2019-03-29T23:12:50.205Z,5.08
2019-03-29T23:15:19.677Z,5.07
2019-03-29T23:17:49.129Z,5.08
2019-03-29T23:20:18.592Z,5.09
2019-03-29T23:22:48.041Z,5.02
2019-03-29T23:25:17.526Z,4.98
2019-03-29T23:27:47.227Z,5.00
2019-03-29T23:30:17.851Z,4.89
2019-03-29T23:32:47.751Z,4.79
2019-03-29T23:35:17.561Z,4.74
2019-03-29T23:37:47.329Z,4.74
2019-03-29T23:40:16.870Z,4.79
2019-03-29T23:42:46.352Z,4.74
2019-03-29T23:45:15.816Z,4.69
2019-03-29T23:47:45.272Z,4.75
2019-03-29T23:50:15.138Z,4.70
2019-03-29T23:52:44.602Z,4.66
2019-03-29T23:55:14.420Z,4.59
2019-03-29T23:57:43.905Z,4.54
